createdAt,value
2022-08-17T00:00:39.706Z,4.93
2022-08-17T00:03:10.735Z,5.43
2022-08-17T00:05:15.672Z,5.63
2022-08-17T00:07:17.449Z,5.35
2022-08-17T00:09:19.536Z,5.18
2022-08-17T00:11:32.131Z,5.05
2022-08-17T00:13:41.266Z,5.07
2022-08-17T00:15:44.810Z,5.40
2022-08-17T00:17:49.322Z,5.15
2022-08-17T00:19:51.104Z,4.95
2022-08-17T00:22:32.784Z,5.25
2022-08-17T00:24:19.974Z,5.53
2022-08-17T00:26:34.549Z,5.90
2022-08-17T00:30:53.229Z,5.45
2022-08-17T00:33:12.526Z,5.70
2022-08-17T00:35:23.579Z,5.78
2022-08-17T00:37:25.372Z,5.47
2022-08-17T00:39:27.182Z,4.97
2022-08-17T00:41:29.453Z,5.28
2022-08-17T00:43:44.176Z,5.50
2022-08-17T00:47:49.450Z,5.28
2022-08-17T00:49:51.244Z,5.00
2022-08-17T00:51:59.092Z,5.13
2022-08-17T00:54:18.551Z,5.25
2022-08-17T00:56:26.691Z,4.90
2022-08-17T00:58:35.927Z,5.55
2022-08-17T01:00:45.867Z,5.28
2022-08-17T01:02:48.910Z,5.20
2022-08-17T01:04:52.438Z,5.60
2022-08-17T01:06:56.745Z,5.03
2022-08-17T01:09:00.819Z,5.22
2022-08-17T01:11:03.137Z,5.07
2022-08-17T01:13:05.748Z,5.38
2022-08-17T01:15:08.390Z,5.38
2022-08-17T01:17:10.469Z,5.72
2022-08-17T01:19:37.668Z,4.93
2022-08-17T01:21:51.486Z,5.35
2022-08-17T01:23:53.379Z,4.88
2022-08-17T01:26:01.805Z,5.15
2022-08-17T01:28:05.512Z,5.20
2022-08-17T01:30:56.741Z,5.82
2022-08-17T01:32:32.685Z,5.57
2022-08-17T01:34:42.315Z,5.10
2022-08-17T01:36:47.973Z,5.30
2022-08-17T01:38:49.955Z,5.15
2022-08-17T01:40:57.479Z,5.47
2022-08-17T01:43:07.314Z,5.35
2022-08-17T01:45:20.294Z,5.25
2022-08-17T01:47:22.860Z,5.10
2022-08-17T01:49:25.825Z,5.07
2022-08-17T01:51:32.516Z,4.90
2022-08-17T01:53:42.655Z,5.30
2022-08-17T01:55:51.457Z,5.13
2022-08-17T01:57:53.603Z,5.47
2022-08-17T01:59:55.475Z,5.63
2022-08-17T02:01:57.373Z,5.33
2022-08-17T02:04:01.336Z,4.90
2022-08-17T02:06:06.091Z,5.40
2022-08-17T02:08:39.258Z,5.47
2022-08-17T02:10:51.777Z,4.97
2022-08-17T02:12:54.781Z,5.30
2022-08-17T02:14:56.724Z,5.07
2022-08-17T02:16:58.760Z,4.88
2022-08-17T02:19:01.577Z,4.78
2022-08-17T02:23:08.880Z,5.15
2022-08-17T02:25:13.403Z,4.80
2022-08-17T02:27:15.211Z,4.88
2022-08-17T02:29:17.015Z,4.45
2022-08-17T02:31:18.961Z,5.20
2022-08-17T02:33:21.263Z,5.40
2022-08-17T02:35:23.497Z,5.20
2022-08-17T02:37:27.227Z,4.97
2022-08-17T02:39:29.026Z,5.40
2022-08-17T02:41:30.974Z,5.03
2022-08-17T02:43:33.292Z,5.00
2022-08-17T02:45:35.653Z,5.43
2022-08-17T02:47:38.165Z,5.32
2022-08-17T02:49:40.026Z,5.47
2022-08-17T02:51:41.745Z,5.37
2022-08-17T02:53:43.582Z,5.20
2022-08-17T02:55:45.434Z,5.70
2022-08-17T02:57:47.684Z,5.13
2022-08-17T02:59:49.527Z,5.35
2022-08-17T03:01:51.327Z,5.22
2022-08-17T03:03:53.266Z,5.43
2022-08-17T03:05:55.077Z,5.43
2022-08-17T03:07:57.362Z,5.28
2022-08-17T03:09:59.339Z,5.25
2022-08-17T03:12:11.067Z,5.23
2022-08-17T03:14:12.903Z,5.00
2022-08-17T03:16:14.948Z,5.45
2022-08-17T03:18:25.409Z,5.40
2022-08-17T03:20:31.079Z,5.40
2022-08-17T03:22:40.574Z,5.63
2022-08-17T03:24:42.359Z,5.15
2022-08-17T03:26:44.229Z,5.32
2022-08-17T03:28:46.021Z,5.28
2022-08-17T03:30:47.912Z,5.30
2022-08-17T03:32:52.058Z,5.27
2022-08-17T03:34:59.204Z,5.18
2022-08-17T03:37:00.936Z,5.10
2022-08-17T03:39:02.808Z,5.22
2022-08-17T03:41:06.486Z,5.32
2022-08-17T03:43:09.706Z,5.55
2022-08-17T03:45:15.589Z,5.10
2022-08-17T03:47:35.898Z,5.20
2022-08-17T03:49:56.543Z,5.00
2022-08-17T03:52:16.842Z,5.45
2022-08-17T03:54:37.460Z,5.40
2022-08-17T03:56:42.296Z,5.40
2022-08-17T03:58:44.638Z,5.53
2022-08-17T04:00:46.622Z,5.20
2022-08-17T04:02:48.453Z,5.43
2022-08-17T04:04:51.294Z,5.30
2022-08-17T04:06:53.248Z,4.93
2022-08-17T04:08:55.030Z,5.38
2022-08-17T04:10:58.149Z,4.95
2022-08-17T04:13:00.026Z,5.15
2022-08-17T04:15:01.864Z,5.75
2022-08-17T04:17:04.954Z,5.50
2022-08-17T04:19:07.067Z,5.30
2022-08-17T04:21:09.571Z,5.90
2022-08-17T04:23:14.471Z,5.32
2022-08-17T04:25:18.399Z,5.20
2022-08-17T04:27:20.206Z,5.57
2022-08-17T04:29:23.132Z,5.43
2022-08-17T04:31:26.248Z,5.28
2022-08-17T04:33:29.534Z,5.03
2022-08-17T04:35:42.150Z,5.20
2022-08-17T04:37:45.369Z,5.20
2022-08-17T04:40:07.163Z,4.57
2022-08-17T04:42:17.093Z,5.55
2022-08-17T04:44:37.196Z,5.40
2022-08-17T04:46:39.935Z,5.05
2022-08-17T04:48:47.804Z,5.35
2022-08-17T04:50:50.965Z,5.50
2022-08-17T04:52:52.770Z,5.25
2022-08-17T04:54:54.561Z,5.30
2022-08-17T04:56:56.360Z,5.47
2022-08-17T04:59:02.615Z,6.03
2022-08-17T05:01:05.905Z,5.80
2022-08-17T05:03:07.728Z,5.05
2022-08-17T05:05:09.597Z,5.13
2022-08-17T05:07:11.856Z,5.38
2022-08-17T05:09:14.204Z,5.22
2022-08-17T05:11:16.123Z,5.53
2022-08-17T05:13:21.557Z,5.47
2022-08-17T05:15:23.356Z,4.78
2022-08-17T05:17:25.120Z,5.43
2022-08-17T05:19:27.028Z,4.93
2022-08-17T05:21:29.685Z,4.97
2022-08-17T05:23:41.902Z,5.22
2022-08-17T05:25:47.913Z,5.32
2022-08-17T05:27:49.709Z,4.53
2022-08-17T05:29:52.224Z,5.25
2022-08-17T05:31:54.290Z,4.47
2022-08-17T05:33:56.131Z,5.45
2022-08-17T05:35:59.697Z,4.97
2022-08-17T05:38:01.743Z,4.70
2022-08-17T05:40:04.074Z,5.28
2022-08-17T05:42:06.224Z,4.95
2022-08-17T05:44:08.005Z,4.85
2022-08-17T05:46:26.420Z,4.50
2022-08-17T05:48:36.776Z,4.57
2022-08-17T05:50:58.669Z,5.10
2022-08-17T05:53:14.093Z,4.95
2022-08-17T05:55:36.217Z,5.32
2022-08-17T05:58:01.386Z,4.85
2022-08-17T06:00:19.244Z,4.97
2022-08-17T06:02:54.657Z,4.72
2022-08-17T06:05:11.120Z,4.18
2022-08-17T06:07:22.003Z,4.80
2022-08-17T06:09:38.858Z,4.97
2022-08-17T06:12:01.732Z,4.53
2022-08-17T06:14:23.201Z,4.45
2022-08-17T06:16:34.067Z,4.85
2022-08-17T06:18:50.225Z,4.10
2022-08-17T06:20:59.864Z,4.43
2022-08-17T06:23:12.262Z,4.80
2022-08-17T06:25:29.932Z,4.10
2022-08-17T06:27:38.560Z,4.32
2022-08-17T06:30:02.207Z,4.10
2022-08-17T06:32:08.492Z,4.30
2022-08-17T06:34:12.579Z,4.40
2022-08-17T06:36:30.161Z,4.07
2022-08-17T06:38:41.276Z,4.07
2022-08-17T06:41:07.583Z,3.90
2022-08-17T06:43:20.989Z,3.88
2022-08-17T06:45:37.779Z,3.95
2022-08-17T06:47:42.389Z,3.80
2022-08-17T06:50:16.546Z,4.05
2022-08-17T06:52:46.417Z,3.90
2022-08-17T06:55:18.056Z,3.65
2022-08-17T06:57:28.462Z,3.15
2022-08-17T06:59:55.924Z,3.65
2022-08-17T07:02:05.246Z,4.38
2022-08-17T07:04:17.229Z,3.88
2022-08-17T07:06:23.657Z,3.80
2022-08-17T07:08:44.594Z,3.40
2022-08-17T07:10:57.492Z,3.97
2022-08-17T07:13:13.979Z,3.45
2022-08-17T07:15:30.542Z,3.60
2022-08-17T07:17:47.015Z,3.55
2022-08-17T07:19:54.097Z,3.55
2022-08-17T07:22:09.363Z,3.60
2022-08-17T07:24:30.254Z,3.35
2022-08-17T07:26:32.511Z,3.60
2022-08-17T07:28:35.731Z,3.40
2022-08-17T07:30:50.135Z,3.40
2022-08-17T07:32:57.796Z,3.60
2022-08-17T07:35:37.704Z,2.85
2022-08-17T07:38:24.942Z,2.83
2022-08-17T07:40:43.982Z,3.63
2022-08-17T07:43:06.267Z,3.65
2022-08-17T07:45:28.435Z,3.55
2022-08-17T07:47:49.173Z,3.50
2022-08-17T07:49:51.159Z,3.50
2022-08-17T07:51:55.339Z,3.57
2022-08-17T07:54:23.990Z,3.40
2022-08-17T07:56:37.923Z,2.90
2022-08-17T07:58:39.736Z,3.35
2022-08-17T08:00:41.538Z,3.30
2022-08-17T08:02:47.594Z,3.23
2022-08-17T08:05:01.846Z,3.47
2022-08-17T08:07:08.484Z,3.30
2022-08-17T08:09:29.100Z,3.45
2022-08-17T08:11:34.906Z,3.80
2022-08-17T08:13:42.624Z,3.17
2022-08-17T08:15:54.251Z,2.80
2022-08-17T08:17:59.298Z,3.42
2022-08-17T08:20:34.907Z,3.38
2022-08-17T08:22:36.954Z,3.72
2022-08-17T08:24:57.317Z,3.53
2022-08-17T08:27:13.808Z,3.35
2022-08-17T08:29:30.327Z,3.20
2022-08-17T08:31:56.222Z,3.83
2022-08-17T08:35:00.911Z,3.25
2022-08-17T08:37:18.068Z,3.70
2022-08-17T08:39:45.238Z,3.80
2022-08-17T08:41:58.831Z,3.80
2022-08-17T08:44:23.915Z,3.45
2022-08-17T08:47:00.811Z,3.40
2022-08-17T08:49:33.799Z,3.60
2022-08-17T08:51:59.408Z,3.17
2022-08-17T08:54:31.440Z,3.38
2022-08-17T08:57:30.822Z,3.67
2022-08-17T09:00:15.158Z,3.85
2022-08-17T09:02:45.428Z,3.55
2022-08-17T09:05:17.043Z,3.70
2022-08-17T09:07:41.901Z,3.17
2022-08-17T09:09:59.494Z,3.42
2022-08-17T09:12:10.564Z,3.50
2022-08-17T09:14:45.048Z,3.05
2022-08-17T09:17:06.308Z,3.20
2022-08-17T09:19:19.418Z,2.97
2022-08-17T09:21:28.703Z,3.53
2022-08-17T09:23:35.467Z,3.50
2022-08-17T09:25:49.849Z,3.73
2022-08-17T09:28:00.701Z,3.20
2022-08-17T09:30:07.921Z,4.00
2022-08-17T09:32:29.905Z,3.63
2022-08-17T09:37:03.194Z,3.25
2022-08-17T09:39:24.468Z,3.47
2022-08-17T09:41:49.054Z,3.40
2022-08-17T09:44:23.418Z,3.10
2022-08-17T09:46:41.460Z,3.67
2022-08-17T09:48:55.288Z,3.40
2022-08-17T09:51:21.419Z,3.70
2022-08-17T09:53:23.373Z,3.47
2022-08-17T09:55:44.067Z,3.30
2022-08-17T09:58:00.926Z,3.50
2022-08-17T10:00:18.762Z,3.45
2022-08-17T10:02:54.443Z,3.03
2022-08-17T10:05:25.406Z,3.63
2022-08-17T10:07:36.431Z,4.10
2022-08-17T10:10:06.458Z,3.90
2022-08-17T10:12:47.000Z,3.85
2022-08-17T10:15:09.566Z,4.20
2022-08-17T10:17:54.526Z,3.60
2022-08-17T10:20:28.191Z,3.80
2022-08-17T10:22:56.677Z,3.20
2022-08-17T10:25:23.886Z,3.70
2022-08-17T10:27:48.807Z,3.88
2022-08-17T10:30:04.304Z,3.67
2022-08-17T10:32:11.563Z,3.70
2022-08-17T10:34:41.194Z,3.97
2022-08-17T10:36:58.156Z,3.42
2022-08-17T10:39:08.621Z,3.38
2022-08-17T10:41:40.462Z,3.22
2022-08-17T10:43:57.913Z,3.58
2022-08-17T10:46:30.949Z,3.53
2022-08-17T10:48:36.945Z,3.90
2022-08-17T10:51:00.076Z,3.85
2022-08-17T10:53:01.966Z,3.72
2022-08-17T10:55:16.366Z,3.85
2022-08-17T10:57:26.656Z,3.67
2022-08-17T10:59:37.729Z,3.55
2022-08-17T11:01:41.114Z,3.25
2022-08-17T11:03:58.294Z,3.38
2022-08-17T11:06:38.876Z,3.38
2022-08-17T11:09:06.294Z,2.92
2022-08-17T11:11:34.369Z,3.78
2022-08-17T11:14:21.402Z,3.30
2022-08-17T11:16:50.408Z,3.65
2022-08-17T11:19:17.281Z,3.65
2022-08-17T11:21:43.413Z,3.08
2022-08-17T11:24:26.862Z,3.88
2022-08-17T11:26:32.416Z,3.33
2022-08-17T11:28:52.590Z,3.60
2022-08-17T11:30:54.788Z,3.50
2022-08-17T11:32:58.411Z,3.17
2022-08-17T11:35:21.105Z,3.38
2022-08-17T11:37:44.071Z,3.67
2022-08-17T11:40:14.752Z,3.60
2022-08-17T11:42:34.366Z,3.45
2022-08-17T11:44:56.610Z,3.50
2022-08-17T11:48:09.086Z,3.17
2022-08-17T11:50:38.855Z,3.05
2022-08-17T11:52:49.408Z,3.25
2022-08-17T11:54:51.295Z,3.38
2022-08-17T11:56:53.599Z,3.22
2022-08-17T11:58:55.520Z,3.55
2022-08-17T12:01:26.882Z,3.40
2022-08-17T12:03:34.472Z,3.15
2022-08-17T12:05:36.733Z,3.60
2022-08-17T12:08:05.486Z,3.40
2022-08-17T12:10:08.582Z,4.25
2022-08-17T12:12:17.752Z,3.88
2022-08-17T12:14:44.977Z,3.63
2022-08-17T12:17:09.112Z,3.47
2022-08-17T12:19:23.765Z,3.30
2022-08-17T12:21:48.819Z,3.28
2022-08-17T12:23:59.278Z,3.30
2022-08-17T12:26:24.811Z,3.20
2022-08-17T12:28:30.886Z,3.45
2022-08-17T12:30:32.705Z,3.25
2022-08-17T12:32:36.276Z,3.42
2022-08-17T12:34:43.590Z,3.22
2022-08-17T12:36:47.169Z,3.47
2022-08-17T12:39:13.756Z,2.80
2022-08-17T12:41:40.744Z,3.42
2022-08-17T12:43:42.537Z,3.45
2022-08-17T12:45:44.814Z,3.63
2022-08-17T12:47:47.928Z,4.10
2022-08-17T12:49:52.234Z,3.55
2022-08-17T12:52:06.290Z,3.25
2022-08-17T12:54:29.234Z,3.53
2022-08-17T12:58:50.047Z,3.92
2022-08-17T13:00:59.951Z,3.40
2022-08-17T13:03:07.844Z,3.80
2022-08-17T13:05:27.933Z,3.08
2022-08-17T13:07:41.984Z,3.63
2022-08-17T13:09:51.285Z,3.40
2022-08-17T13:11:56.112Z,3.22
2022-08-17T13:14:10.049Z,3.50
2022-08-17T13:16:11.779Z,3.45
2022-08-17T13:18:33.411Z,3.40
2022-08-17T13:20:35.775Z,3.10
2022-08-17T13:22:44.516Z,3.15
2022-08-17T13:24:56.498Z,2.97
2022-08-17T13:27:01.260Z,2.88
2022-08-17T13:29:33.020Z,3.17
2022-08-17T13:31:49.797Z,2.85
2022-08-17T13:34:25.421Z,2.88
2022-08-17T13:36:30.189Z,3.30
2022-08-17T13:39:15.096Z,3.33
2022-08-17T13:41:38.251Z,3.55
2022-08-17T13:43:45.177Z,3.50
2022-08-17T13:45:50.676Z,3.63
2022-08-17T13:48:25.749Z,3.20
2022-08-17T13:50:27.739Z,3.20
2022-08-17T13:52:43.023Z,3.20
2022-08-17T13:54:51.840Z,3.47
2022-08-17T13:57:01.127Z,3.27
2022-08-17T13:59:07.183Z,3.03
2022-08-17T14:01:35.453Z,3.08
2022-08-17T14:03:37.277Z,3.03
2022-08-17T14:05:39.630Z,3.40
2022-08-17T14:09:54.790Z,3.33
2022-08-17T14:11:58.181Z,3.17
2022-08-17T14:14:00.045Z,3.38
2022-08-17T14:16:02.016Z,3.10
2022-08-17T14:18:04.602Z,2.97
2022-08-17T14:20:12.149Z,3.55
2022-08-17T14:22:30.552Z,3.30
2022-08-17T14:24:44.145Z,3.15
2022-08-17T14:26:46.750Z,3.13
2022-08-17T14:28:54.652Z,3.08
2022-08-17T14:30:58.607Z,3.10
2022-08-17T14:33:02.079Z,2.88
2022-08-17T14:35:06.127Z,3.28
2022-08-17T14:37:07.921Z,3.10
2022-08-17T14:39:11.246Z,2.90
2022-08-17T14:41:18.749Z,3.10
2022-08-17T14:43:24.029Z,2.80
2022-08-17T14:45:31.703Z,2.58
2022-08-17T14:47:36.832Z,2.47
2022-08-17T14:49:38.588Z,2.83
2022-08-17T14:51:43.917Z,2.60
2022-08-17T14:53:46.252Z,2.45
2022-08-17T14:55:50.996Z,2.65
2022-08-17T14:57:53.140Z,2.53
2022-08-17T15:01:58.190Z,2.88
2022-08-17T15:04:00.942Z,2.88
2022-08-17T15:06:03.142Z,2.90
2022-08-17T15:08:06.284Z,2.72
2022-08-17T15:10:08.945Z,2.95
2022-08-17T15:12:17.968Z,2.92
2022-08-17T15:14:20.222Z,2.92
2022-08-17T15:18:25.083Z,2.78
2022-08-17T15:20:29.024Z,2.95
2022-08-17T15:22:31.414Z,3.08
2022-08-17T15:24:33.661Z,2.67
2022-08-17T15:28:38.665Z,2.90
2022-08-17T15:30:44.833Z,2.75
2022-08-17T15:32:51.187Z,3.25
2022-08-17T15:34:59.179Z,2.97
2022-08-17T15:37:00.990Z,3.22
2022-08-17T15:39:03.142Z,2.85
2022-08-17T15:41:07.337Z,2.88
2022-08-17T15:43:16.308Z,3.28
2022-08-17T15:45:22.549Z,2.83
2022-08-17T15:47:24.516Z,3.30
2022-08-17T15:49:26.280Z,3.10
2022-08-17T15:51:34.231Z,2.83
2022-08-17T15:53:37.077Z,3.00
2022-08-17T15:55:39.658Z,3.50
2022-08-17T15:57:41.492Z,3.40
2022-08-17T15:59:44.351Z,2.47
2022-08-17T16:03:14.515Z,2.70
2022-08-17T16:04:29.747Z,2.88
2022-08-17T16:06:31.750Z,2.63
2022-08-17T16:08:34.978Z,2.53
2022-08-17T16:10:37.097Z,2.67
2022-08-17T16:12:39.071Z,2.58
2022-08-17T16:14:40.801Z,2.78
2022-08-17T16:16:42.605Z,2.38
2022-08-17T16:18:44.488Z,2.50
2022-08-17T16:20:46.368Z,2.50
2022-08-17T16:22:50.348Z,2.88
2022-08-17T16:24:57.119Z,3.17
2022-08-17T16:26:59.582Z,3.38
2022-08-17T16:29:05.446Z,3.10
2022-08-17T16:31:07.966Z,3.03
2022-08-17T16:33:11.558Z,2.60
2022-08-17T16:35:17.389Z,2.47
2022-08-17T16:37:19.307Z,2.83
2022-08-17T16:39:21.026Z,2.58
2022-08-17T16:41:41.773Z,3.13
2022-08-17T16:43:45.698Z,3.45
2022-08-17T16:45:51.874Z,2.75
2022-08-17T16:47:55.263Z,3.10
2022-08-17T16:49:57.730Z,2.88
2022-08-17T16:54:02.746Z,2.80
2022-08-17T16:56:04.950Z,2.80
2022-08-17T16:58:08.820Z,2.72
2022-08-17T17:00:13.773Z,2.53
2022-08-17T17:02:23.534Z,2.70
2022-08-17T17:04:26.481Z,2.80
2022-08-17T17:06:49.887Z,2.90
2022-08-17T17:09:00.850Z,3.03
2022-08-17T17:11:37.785Z,2.80
2022-08-17T17:13:48.573Z,2.40
2022-08-17T17:15:59.591Z,2.58
2022-08-17T17:18:07.329Z,2.75
2022-08-17T17:20:18.139Z,2.90
2022-08-17T17:22:38.181Z,2.67
2022-08-17T17:25:03.416Z,2.90
2022-08-17T17:27:47.310Z,2.85
2022-08-17T17:30:04.090Z,2.35
2022-08-17T17:32:30.989Z,2.88
2022-08-17T17:34:34.768Z,2.90
2022-08-17T17:36:50.285Z,2.65
2022-08-17T17:39:05.341Z,2.33
2022-08-17T17:41:26.070Z,3.00
2022-08-17T17:43:38.872Z,2.92
2022-08-17T17:45:45.867Z,2.72
2022-08-17T17:47:48.032Z,3.17
2022-08-17T17:49:49.918Z,2.40
2022-08-17T17:52:18.892Z,2.67
2022-08-17T17:54:40.503Z,2.72
2022-08-17T17:56:45.348Z,3.00
2022-08-17T17:59:12.607Z,2.95
2022-08-17T18:01:22.628Z,2.63
2022-08-17T18:03:33.697Z,3.05
2022-08-17T18:05:57.228Z,2.70
2022-08-17T18:08:33.851Z,3.35
2022-08-17T18:10:47.443Z,2.97
2022-08-17T18:13:19.927Z,2.97
2022-08-17T18:15:29.454Z,2.67
2022-08-17T18:17:31.220Z,2.80
2022-08-17T18:19:33.191Z,2.83
2022-08-17T18:21:38.982Z,3.13
2022-08-17T18:23:54.458Z,3.50
2022-08-17T18:25:58.602Z,3.30
2022-08-17T18:28:00.455Z,2.85
2022-08-17T18:30:25.932Z,3.20
2022-08-17T18:32:40.840Z,2.95
2022-08-17T18:34:47.559Z,3.20
2022-08-17T18:36:49.693Z,2.97
2022-08-17T18:39:15.379Z,3.40
2022-08-17T18:41:30.489Z,3.20
2022-08-17T18:43:43.865Z,3.13
2022-08-17T18:46:15.772Z,3.55
2022-08-17T18:48:48.692Z,3.40
2022-08-17T18:50:53.512Z,3.20
2022-08-17T18:53:20.257Z,3.35
2022-08-17T18:55:30.190Z,3.55
2022-08-17T18:57:35.804Z,3.35
2022-08-17T18:59:48.196Z,3.15
2022-08-17T19:02:24.972Z,3.30
2022-08-17T19:04:40.599Z,3.05
2022-08-17T19:06:43.095Z,3.25
2022-08-17T19:08:44.901Z,3.10
2022-08-17T19:11:11.484Z,3.33
2022-08-17T19:13:42.252Z,3.55
2022-08-17T19:16:11.908Z,3.45
2022-08-17T19:18:18.534Z,3.50
2022-08-17T19:20:43.180Z,3.60
2022-08-17T19:23:01.507Z,3.38
2022-08-17T19:25:17.040Z,3.78
2022-08-17T19:27:34.731Z,3.55
2022-08-17T19:30:02.675Z,3.80
2022-08-17T19:32:08.797Z,3.88
2022-08-17T19:34:14.414Z,3.60
2022-08-17T19:36:21.984Z,3.85
2022-08-17T19:38:53.845Z,3.78
2022-08-17T19:41:05.798Z,3.95
2022-08-17T19:43:16.834Z,4.70
2022-08-17T19:45:29.765Z,3.40
2022-08-17T19:50:11.346Z,3.90
2022-08-17T19:52:34.308Z,4.13
2022-08-17T19:54:55.417Z,3.30
2022-08-17T19:57:18.375Z,4.00
2022-08-17T19:59:35.778Z,3.58
2022-08-17T20:01:46.754Z,3.20
2022-08-17T20:03:57.514Z,4.10
2022-08-17T20:06:12.557Z,4.00
2022-08-17T20:08:22.099Z,3.60
2022-08-17T20:10:45.216Z,4.03
2022-08-17T20:12:53.376Z,3.72
2022-08-17T20:15:05.267Z,4.03
2022-08-17T20:17:08.074Z,4.18
2022-08-17T20:19:29.719Z,3.97
2022-08-17T20:21:44.163Z,4.20
2022-08-17T20:23:52.216Z,4.05
2022-08-17T20:25:59.175Z,3.85
2022-08-17T20:28:17.243Z,3.67
2022-08-17T20:30:42.130Z,4.10
2022-08-17T20:32:52.406Z,3.88
2022-08-17T20:35:04.136Z,3.70
2022-08-17T20:37:13.497Z,4.00
2022-08-17T20:39:32.156Z,4.07
2022-08-17T20:42:05.342Z,3.92
2022-08-17T20:44:07.179Z,4.28
2022-08-17T20:46:26.810Z,3.80
2022-08-17T20:48:38.387Z,3.92
2022-08-17T20:50:51.778Z,4.05
2022-08-17T20:53:02.352Z,4.40
2022-08-17T20:55:05.239Z,3.95
2022-08-17T20:57:13.716Z,4.35
2022-08-17T20:59:25.803Z,4.22
2022-08-17T21:01:40.729Z,4.20
2022-08-17T21:03:50.915Z,3.80
2022-08-17T21:06:16.876Z,4.30
2022-08-17T21:08:25.621Z,4.10
2022-08-17T21:10:27.325Z,4.28
2022-08-17T21:12:58.432Z,3.72
2022-08-17T21:15:17.361Z,4.22
2022-08-17T21:17:50.118Z,4.25
2022-08-17T21:20:22.452Z,4.10
2022-08-17T21:22:33.315Z,4.05
2022-08-17T21:24:43.773Z,4.07
2022-08-17T21:27:08.343Z,3.95
2022-08-17T21:29:31.170Z,4.20
2022-08-17T21:31:46.203Z,4.13
2022-08-17T21:34:15.035Z,4.03
2022-08-17T21:36:26.625Z,4.30
2022-08-17T21:38:47.682Z,3.83
2022-08-17T21:40:53.078Z,4.10
2022-08-17T21:43:15.737Z,4.38
2022-08-17T21:45:35.517Z,4.60
2022-08-17T21:47:43.421Z,3.90
2022-08-17T21:49:45.239Z,3.90
2022-08-17T21:52:07.077Z,4.18
2022-08-17T21:54:36.095Z,4.32
2022-08-17T21:56:40.618Z,3.92
2022-08-17T21:58:48.438Z,4.65
2022-08-17T22:01:21.063Z,5.43
2022-08-17T22:03:26.122Z,5.60
2022-08-17T22:05:39.763Z,5.55
2022-08-17T22:07:50.893Z,5.30
2022-08-17T22:09:52.830Z,5.35
2022-08-17T22:11:59.941Z,5.10
2022-08-17T22:14:05.719Z,4.80
2022-08-17T22:16:28.578Z,5.25
2022-08-17T22:18:31.941Z,5.00
2022-08-17T22:20:34.525Z,5.43
2022-08-17T22:23:13.061Z,5.18
2022-08-17T22:25:22.221Z,5.50
2022-08-17T22:27:45.977Z,5.38
2022-08-17T22:29:57.903Z,6.13
2022-08-17T22:31:59.944Z,5.83
2022-08-17T22:34:04.538Z,5.40
2022-08-17T22:36:32.524Z,5.10
2022-08-17T22:38:34.757Z,5.10
2022-08-17T22:40:36.569Z,5.10
2022-08-17T22:42:49.526Z,5.40
2022-08-17T22:46:53.450Z,4.95
2022-08-17T22:48:59.321Z,4.95
2022-08-17T22:51:13.817Z,4.97
2022-08-17T22:53:37.918Z,5.35
2022-08-17T22:56:09.038Z,5.13
2022-08-17T22:58:35.923Z,5.32
2022-08-17T23:00:42.339Z,5.65
2022-08-17T23:03:11.607Z,6.13
2022-08-17T23:05:13.414Z,6.90
2022-08-17T23:07:15.567Z,6.18
2022-08-17T23:09:17.347Z,6.28
2022-08-17T23:11:19.116Z,6.47
2022-08-17T23:13:38.228Z,5.93
2022-08-17T23:15:41.375Z,7.55
2022-08-17T23:17:43.167Z,7.15
2022-08-17T23:19:47.215Z,7.18
2022-08-17T23:21:52.413Z,7.28
2022-08-17T23:23:54.231Z,6.82
2022-08-17T23:25:56.063Z,7.55
2022-08-17T23:28:01.647Z,8.30
2022-08-17T23:30:04.380Z,7.53
2022-08-17T23:32:06.481Z,7.53
2022-08-17T23:34:14.638Z,7.85
2022-08-17T23:36:17.317Z,8.48
2022-08-17T23:38:19.095Z,7.32
2022-08-17T23:40:21.396Z,7.53
2022-08-17T23:42:23.340Z,7.65
2022-08-17T23:44:25.333Z,7.67
2022-08-17T23:46:27.161Z,7.23
2022-08-17T23:48:35.831Z,7.55
2022-08-17T23:50:38.971Z,7.32
2022-08-17T23:52:42.795Z,7.33
2022-08-17T23:54:47.125Z,6.78
2022-08-17T23:56:49.085Z,7.05
2022-08-17T23:58:51.406Z,6.80
